KONT/ONT METAR and TAF weather

Enter ICAO airport designator
Station Type Date Time Source
KONT METAR 2019/02/20 07:53 UTC NOAA

KONT 200753Z 00000KT 10SM FEW250 06/M01 A3010 RMK AO2 SLP194 T00561006 401500022


Station Type Date Time Source
KONT Decoded METAR 2019/02/20 07:53 UTC NOAA

ONTARIO INTERNATIONAL AIRPORT, CA, United States (KONT) 34-03N 117-35W 275M
Feb 20, 2019 - 02:53 AM EST / 2019.02.20 0753 UTC
Wind: Calm:0
Visibility: 10 mile(s):0
Sky conditions: mostly clear
Temperature: 42.1 F (5.6 C)
Dew Point: 30.9 F (-0.6 C)
Relative Humidity: 64%
Pressure (altimeter): 30.1 in. Hg (1019 hPa)
ob: KONT 200753Z 00000KT 10SM FEW250 06/M01 A3010 RMK AO2 SLP194 T00561006 401500022
cycle: 8

Station Type Date Time Source
KONT TAF 2019/02/20 06:22 UTC NOAA

TAF KONT 200520Z 2006/2112 VRB05KT P6SM FEW100
FM202100 23012KT P6SM VCSH SCT025 BKN040
FM210000 25012G20KT P6SM -SHRA BKN025 OVC035
FM210800 27008KT P6SM VCSH SCT025 BKN050


Example: see airport list